Sunday, November 19, 2017, 9:13 AM EST
Back to Local

KACK, Nantucket Memorial Airport

Location: Nantucket, MA, United States Lat: 41.25
Local Time: 9:13 AM EST (14:13 GMT) Lon: -70.067
Time Zone: US/Eastern Elev: 49 ft

Show me the last for .
Show Decoded

2017-11-19 08:53 METAR KACK 191353Z 21022G28KT 4SM -RA BR FEW009 BKN040 OVC065 15/15 A2931 RMK
                 AO2 PK WND 19032/1315 SLP924 P0008 T01500150 =
2017-11-19 08:31 METAR KACK 191331Z 21021G28KT 3SM R24/5500VP6000FT RA BR FEW007 BKN017 OVC024
                 15/15 A2932 RMK AO2 PK WND 19032/1315 P0008 T01500150 =
2017-11-19 08:14 METAR KACK 191314Z 19019G31KT 3SM RA BR FEW015 BKN026 OVC031 14/14 A2932 RMK AO2
                 PK WND 18031/1314 P0002 T01390139 =
2017-11-19 07:53 METAR KACK 191253Z 18015KT 3SM -RA BR FEW026 BKN046 OVC060 13/13 A2932 RMK AO2
                 SLP928 P0002 T01330133 =
2017-11-19 06:53 METAR KACK 191153Z 19016KT 7SM -RA OVC065 14/13 A2934 RMK AO2 RAB52 SLP936 P0000
                 60000 T01390133 10150 20139 56030 =
2017-11-19 05:53 METAR KACK 191053Z AUTO 19015KT 7SM OVC060 14/13 A2937 RMK AO2 SLP947 T01440133
                 TSNO =
2017-11-19 04:53 METAR KACK 190953Z AUTO 19016KT 8SM OVC060 14/13 A2940 RMK AO2 SLP955 T01440133
                 TSNO =
2017-11-19 03:53 METAR KACK 190853Z AUTO 19016KT 8SM FEW030 OVC065 14/13 A2943 RMK AO2 PK WND
                 18027/0834 SLP966 T01390128 56033 TSNO =
2017-11-19 02:53 METAR KACK 190753Z AUTO 19018KT 8SM FEW060 OVC095 14/13 A2945 RMK AO2 SLP974
                 T01440128 TSNO =
2017-11-19 01:53 METAR KACK 190653Z AUTO 19015KT 8SM BKN033 14/13 A2950 RMK AO2 SLP990 T01390128
                 TSNO =
2017-11-19 00:53 METAR KACK 190553Z AUTO 19016KT 8SM FEW048 FEW110 14/13 A2953 RMK AO2 SLP999
                 60000 T01390128 10139 20117 58030 TSNO =
2017-11-18 23:53 METAR KACK 190453Z AUTO 19011KT 7SM FEW041 BKN050 BKN100 13/13 A2957 RMK AO2
                 RAE0356 SLP015 P0000 T01330128 401391022 TSNO =
2017-11-18 22:53 METAR KACK 190353Z AUTO 20013KT 8SM -RA OVC090 14/13 A2960 RMK AO2 RAE0254B39
                 SLP023 P0000 T01390133 TSNO =
2017-11-18 21:53 METAR KACK 190253Z AUTO 18013KT 9SM -RA FEW037 OVC100 13/12 A2962 RMK AO2 RAB30
                 SLP030 P0000 60000 T01280122 58033 TSNO =
2017-11-18 20:53 METAR KACK 190153Z AUTO 18010KT 10SM OVC110 12/11 A2966 RMK AO2 SLP042 T01220111
                 TSNO =
2017-11-18 19:53 METAR KACK 190053Z 18010KT 10SM OVC110 12/11 A2969 RMK AO2 SLP052 T01220106 =
2017-11-18 18:53 METAR KACK 182353Z 18009KT 10SM CLR 12/10 A2972 RMK AO2 SLP062 T01170100 10117
                 20106 56022 =
2017-11-18 17:53 METAR KACK 182253Z 18010KT 10SM CLR 11/10 A2973 RMK AO2 SLP069 T01110100 =
2017-11-18 16:53 METAR KACK 182153Z 18011KT 10SM SCT120 11/09 A2974 RMK AO2 SLP071 T01110094 =
2017-11-18 15:53 METAR KACK 182053Z 20009KT 10SM FEW028 11/08 A2978 RMK AO2 SLP084 T01110083
                 58029 =
2017-11-18 14:53 METAR KACK 181953Z 21010KT 10SM CLR 12/08 A2980 RMK AO2 SLP093 T01170078 =
2017-11-18 13:53 METAR KACK 181853Z 22011KT 10SM FEW025 11/07 A2985 RMK AO2 SLP106 T01110072 =
2017-11-18 12:53 METAR KACK 181753Z 22011KT 10SM CLR 11/06 A2987 RMK AO2 SLP113 T01060056 10117
                 20000 56031 =
2017-11-18 11:53 METAR KACK 181653Z 23013KT 10SM CLR 11/04 A2989 RMK AO2 SLP123 T01110044 =
2017-11-18 10:53 METAR KACK 181553Z 22011KT 10SM CLR 10/03 A2993 RMK AO2 SLP135 T01000033 =
2017-11-18 09:53 METAR KACK 181453Z 23009KT 10SM CLR 10/02 A2996 RMK AO2 SLP144 T01000017 58013 =

Support USWX by starting your Amazon purchase here.